createdAt,value
2023-05-09T00:00:54.861Z,16.48
2023-05-09T00:03:22.199Z,16.17
2023-05-09T00:05:49.367Z,16.05
2023-05-09T00:08:17.017Z,17.30
2023-05-09T00:10:44.115Z,17.63
2023-05-09T00:13:12.070Z,17.65
2023-05-09T00:15:39.351Z,16.88
2023-05-09T00:18:06.605Z,16.73
2023-05-09T00:20:34.101Z,16.10
2023-05-09T00:23:01.309Z,17.00
2023-05-09T00:25:28.445Z,18.27
2023-05-09T00:27:55.629Z,17.90
2023-05-09T00:30:22.788Z,17.45
2023-05-09T00:32:50.111Z,17.65
2023-05-09T00:35:17.963Z,17.13
2023-05-09T00:37:45.172Z,17.65
2023-05-09T00:40:12.578Z,16.70
2023-05-09T00:42:39.749Z,18.55
2023-05-09T00:45:07.548Z,18.05
2023-05-09T00:47:35.610Z,16.52
2023-05-09T00:50:03.593Z,16.67
2023-05-09T00:52:30.910Z,16.52
2023-05-09T00:54:58.404Z,17.30
2023-05-09T00:57:25.558Z,17.35
2023-05-09T00:59:52.672Z,16.95
2023-05-09T01:02:19.880Z,16.48
2023-05-09T01:04:47.243Z,16.77
2023-05-09T01:07:21.745Z,16.10
2023-05-09T01:09:56.108Z,17.63
2023-05-09T01:12:23.899Z,16.77
2023-05-09T01:15:04.485Z,16.35
2023-05-09T01:17:31.617Z,16.88
2023-05-09T01:20:12.946Z,17.33
2023-05-09T01:22:43.071Z,17.25
2023-05-09T01:25:27.123Z,16.60
2023-05-09T01:28:01.324Z,17.40
2023-05-09T01:30:29.632Z,16.98
2023-05-09T01:33:00.231Z,17.23
2023-05-09T01:35:29.281Z,17.52
2023-05-09T01:37:57.199Z,17.83
2023-05-09T01:40:26.515Z,17.30
2023-05-09T01:42:59.100Z,18.00
2023-05-09T01:45:27.624Z,18.70
2023-05-09T01:47:54.864Z,18.90
2023-05-09T01:50:23.096Z,18.13
2023-05-09T01:52:51.474Z,17.83
2023-05-09T01:55:20.086Z,16.95
2023-05-09T01:57:47.822Z,19.13
2023-05-09T02:00:15.626Z,18.58
2023-05-09T02:02:44.925Z,17.75
2023-05-09T02:05:12.964Z,18.42
2023-05-09T02:07:41.699Z,17.73
2023-05-09T02:10:10.067Z,17.55
2023-05-09T02:12:38.203Z,18.02
2023-05-09T02:15:06.120Z,18.85
2023-05-09T02:17:33.324Z,17.60
2023-05-09T02:20:00.633Z,18.23
2023-05-09T02:22:27.981Z,17.63
2023-05-09T02:24:55.227Z,18.60
2023-05-09T02:27:22.494Z,18.20
2023-05-09T02:29:51.430Z,19.25
2023-05-09T02:32:34.681Z,19.33
2023-05-09T02:35:02.650Z,17.88
2023-05-09T02:37:29.982Z,19.30
2023-05-09T02:39:57.341Z,19.27
2023-05-09T02:42:25.960Z,17.98
2023-05-09T02:44:53.689Z,18.35
2023-05-09T02:47:20.922Z,17.73
2023-05-09T02:49:48.208Z,18.05
2023-05-09T02:52:15.790Z,18.55
2023-05-09T02:54:42.956Z,17.27
2023-05-09T02:57:10.312Z,17.80
2023-05-09T02:59:37.505Z,17.63
2023-05-09T03:02:05.076Z,17.35
2023-05-09T03:04:32.337Z,18.52
2023-05-09T03:06:59.970Z,19.33
2023-05-09T03:09:31.734Z,18.35
2023-05-09T03:11:58.954Z,19.00
2023-05-09T03:14:26.101Z,18.13
2023-05-09T03:16:54.664Z,18.58
2023-05-09T03:19:27.201Z,18.50
2023-05-09T03:21:54.400Z,19.38
2023-05-09T03:24:23.083Z,19.25
2023-05-09T03:26:50.247Z,17.92
2023-05-09T03:29:17.384Z,16.45
2023-05-09T03:31:44.521Z,18.17
2023-05-09T03:34:15.119Z,18.63
2023-05-09T03:36:43.777Z,18.30
2023-05-09T03:39:12.949Z,17.75
2023-05-09T03:41:43.581Z,18.92
2023-05-09T03:44:10.881Z,17.05
2023-05-09T03:46:38.050Z,19.45
2023-05-09T03:49:06.104Z,18.65
2023-05-09T03:51:34.390Z,18.20
2023-05-09T03:54:03.561Z,18.48
2023-05-09T03:56:30.796Z,18.33
2023-05-09T03:58:57.996Z,17.17
2023-05-09T04:01:26.703Z,17.50
2023-05-09T04:03:57.539Z,17.55
2023-05-09T04:06:25.866Z,17.88
2023-05-09T04:08:53.061Z,16.58
2023-05-09T04:11:21.590Z,16.33
2023-05-09T04:13:50.179Z,16.33
2023-05-09T04:16:26.355Z,17.00
2023-05-09T04:18:54.266Z,17.08
2023-05-09T04:21:21.383Z,17.88
2023-05-09T04:23:51.406Z,16.45
2023-05-09T04:26:24.594Z,16.42
2023-05-09T04:28:54.380Z,16.63
2023-05-09T04:31:21.612Z,16.75
2023-05-09T04:33:51.468Z,15.88
2023-05-09T04:36:18.764Z,16.35
2023-05-09T04:38:46.421Z,15.77
2023-05-09T04:41:17.058Z,15.40
2023-05-09T04:43:44.575Z,16.45
2023-05-09T04:46:11.798Z,15.20
2023-05-09T04:48:39.031Z,16.00
2023-05-09T04:51:06.187Z,14.25
2023-05-09T04:53:34.128Z,15.48
2023-05-09T04:56:01.467Z,14.45
2023-05-09T04:58:29.471Z,15.27
2023-05-09T05:00:57.216Z,16.30
2023-05-09T05:03:24.369Z,15.93
2023-05-09T05:05:51.571Z,13.77
2023-05-09T05:08:18.764Z,14.98
2023-05-09T05:10:48.965Z,15.05
2023-05-09T05:13:17.258Z,14.75
2023-05-09T05:15:48.112Z,13.93
2023-05-09T05:18:15.527Z,14.68
2023-05-09T05:20:43.125Z,13.98
2023-05-09T05:23:11.170Z,14.18
2023-05-09T05:25:38.632Z,13.48
2023-05-09T05:28:06.466Z,13.63
2023-05-09T05:30:34.602Z,12.95
2023-05-09T05:33:02.855Z,13.25
2023-05-09T05:35:30.183Z,13.45
2023-05-09T05:37:57.952Z,13.18
2023-05-09T05:40:26.191Z,13.65
2023-05-09T05:42:54.549Z,13.60
2023-05-09T05:45:22.370Z,12.68
2023-05-09T05:47:53.001Z,12.00
2023-05-09T05:50:20.888Z,13.43
2023-05-09T05:52:48.231Z,11.98
2023-05-09T05:55:17.810Z,12.05
2023-05-09T05:57:45.180Z,11.85
2023-05-09T06:00:15.147Z,12.05
2023-05-09T06:02:48.065Z,11.45
2023-05-09T06:05:22.660Z,11.38
2023-05-09T06:07:50.921Z,10.65
2023-05-09T06:10:18.039Z,10.70
2023-05-09T06:12:46.123Z,11.00
2023-05-09T06:15:13.441Z,11.32
2023-05-09T06:17:44.567Z,11.52
2023-05-09T06:20:11.825Z,10.85
2023-05-09T06:22:38.968Z,10.80
2023-05-09T06:25:08.710Z,10.52
2023-05-09T06:27:37.463Z,11.48
2023-05-09T06:30:14.253Z,10.90
2023-05-09T06:32:45.168Z,11.80
2023-05-09T06:35:12.724Z,11.57
2023-05-09T06:37:39.933Z,9.77
2023-05-09T06:40:07.545Z,11.20
2023-05-09T06:42:34.594Z,10.75
2023-05-09T06:45:01.774Z,12.10
2023-05-09T06:47:28.993Z,11.38
2023-05-09T06:49:56.149Z,10.65
2023-05-09T06:52:23.327Z,11.63
2023-05-09T06:54:50.484Z,11.27
2023-05-09T06:57:18.044Z,10.50
2023-05-09T06:59:45.246Z,12.05
2023-05-09T07:02:12.380Z,11.68
2023-05-09T07:04:39.463Z,12.25
2023-05-09T07:07:06.599Z,10.57
2023-05-09T07:09:33.812Z,12.15
2023-05-09T07:12:01.737Z,11.00
2023-05-09T07:14:28.926Z,10.60
2023-05-09T07:17:05.238Z,11.27
2023-05-09T07:19:41.265Z,10.95
2023-05-09T07:22:08.375Z,11.32
2023-05-09T07:24:35.642Z,11.00
2023-05-09T07:27:03.780Z,11.60
2023-05-09T07:29:30.939Z,11.85
2023-05-09T07:31:58.077Z,11.73
2023-05-09T07:34:25.540Z,11.60
2023-05-09T07:36:52.931Z,11.80
2023-05-09T07:39:20.144Z,10.70
2023-05-09T07:41:48.710Z,10.52
2023-05-09T07:44:16.225Z,10.82
2023-05-09T07:46:43.348Z,11.40
2023-05-09T07:49:10.573Z,10.90
2023-05-09T07:51:37.717Z,11.90
2023-05-09T07:54:04.868Z,11.05
2023-05-09T07:56:31.983Z,11.48
2023-05-09T07:58:59.137Z,11.40
2023-05-09T08:01:26.257Z,11.02
2023-05-09T08:03:53.438Z,11.20
2023-05-09T08:06:20.834Z,10.52
2023-05-09T08:08:47.933Z,10.38
2023-05-09T08:11:15.085Z,10.40
2023-05-09T08:13:42.197Z,10.35
2023-05-09T08:16:09.425Z,10.80
2023-05-09T08:18:38.040Z,10.07
2023-05-09T08:21:05.280Z,10.02
2023-05-09T08:23:32.483Z,9.98
2023-05-09T08:25:59.845Z,10.18
2023-05-09T08:28:28.535Z,10.25
2023-05-09T08:30:56.707Z,9.13
2023-05-09T08:33:24.421Z,9.40
2023-05-09T08:35:54.852Z,9.52
2023-05-09T08:38:22.048Z,8.95
2023-05-09T08:40:49.134Z,9.45
2023-05-09T08:43:19.155Z,8.65
2023-05-09T08:45:52.336Z,8.32
2023-05-09T08:48:19.831Z,9.13
2023-05-09T08:50:46.966Z,8.85
2023-05-09T08:53:14.793Z,7.60
2023-05-09T08:55:42.060Z,7.53
2023-05-09T08:58:10.299Z,7.15
2023-05-09T09:00:40.972Z,6.60
2023-05-09T09:03:08.555Z,6.13
2023-05-09T09:05:41.972Z,6.68
2023-05-09T09:08:10.775Z,6.57
2023-05-09T09:10:40.788Z,6.60
2023-05-09T09:13:08.643Z,5.88
2023-05-09T09:15:37.110Z,6.18
2023-05-09T09:18:09.932Z,7.05
2023-05-09T09:20:48.551Z,6.45
2023-05-09T09:23:18.651Z,6.78
2023-05-09T09:25:48.870Z,6.45
2023-05-09T09:28:16.164Z,6.70
2023-05-09T09:30:47.938Z,6.63
2023-05-09T09:33:24.995Z,6.25
2023-05-09T09:35:53.023Z,7.15
2023-05-09T09:38:20.901Z,6.55
2023-05-09T09:40:57.580Z,6.30
2023-05-09T09:43:31.423Z,6.25
2023-05-09T09:46:01.856Z,6.05
2023-05-09T09:48:33.761Z,6.00
2023-05-09T09:51:19.974Z,6.28
2023-05-09T09:53:47.315Z,6.28
2023-05-09T09:56:14.501Z,5.97
2023-05-09T09:58:41.606Z,5.35
2023-05-09T10:01:09.997Z,5.65
2023-05-09T10:03:41.051Z,5.43
2023-05-09T10:06:15.239Z,5.57
2023-05-09T10:08:42.765Z,6.00
2023-05-09T10:11:10.936Z,5.80
2023-05-09T10:13:38.772Z,5.32
2023-05-09T10:16:06.660Z,5.82
2023-05-09T10:18:34.377Z,5.35
2023-05-09T10:21:03.757Z,6.10
2023-05-09T10:23:31.943Z,5.45
2023-05-09T10:26:01.527Z,5.28
2023-05-09T10:28:31.762Z,5.32
2023-05-09T10:31:08.592Z,5.90
2023-05-09T10:33:43.171Z,5.35
2023-05-09T10:36:10.831Z,6.30
2023-05-09T10:38:38.070Z,5.45
2023-05-09T10:41:05.929Z,5.90
2023-05-09T10:43:35.457Z,5.68
2023-05-09T10:46:05.252Z,5.40
2023-05-09T10:48:33.794Z,5.72
2023-05-09T10:51:02.152Z,5.22
2023-05-09T10:53:43.761Z,5.10
2023-05-09T10:56:22.781Z,5.53
2023-05-09T10:58:50.016Z,5.60
2023-05-09T11:01:28.596Z,5.53
2023-05-09T11:03:57.025Z,5.13
2023-05-09T11:06:43.786Z,4.97
2023-05-09T11:09:25.194Z,5.95
2023-05-09T11:12:18.764Z,5.32
2023-05-09T11:14:46.945Z,5.57
2023-05-09T11:17:15.231Z,5.50
2023-05-09T11:19:49.002Z,5.60
2023-05-09T11:22:24.522Z,5.57
2023-05-09T11:24:53.863Z,5.88
2023-05-09T11:27:21.931Z,5.57
2023-05-09T11:29:52.155Z,5.18
2023-05-09T11:32:20.111Z,5.10
2023-05-09T11:34:47.834Z,5.20
2023-05-09T11:37:17.742Z,5.10
2023-05-09T11:40:01.292Z,4.82
2023-05-09T11:42:28.867Z,4.93
2023-05-09T11:44:57.044Z,5.28
2023-05-09T11:47:24.609Z,4.90
2023-05-09T11:49:52.141Z,4.72
2023-05-09T11:52:20.840Z,5.10
2023-05-09T11:54:49.262Z,4.43
2023-05-09T11:57:19.363Z,4.55
2023-05-09T11:59:46.699Z,5.28
2023-05-09T12:02:14.001Z,4.90
2023-05-09T12:04:41.285Z,5.40
2023-05-09T12:07:08.542Z,4.05
2023-05-09T12:09:39.091Z,4.70
2023-05-09T12:12:13.040Z,4.60
2023-05-09T12:14:40.482Z,4.40
2023-05-09T12:17:10.690Z,4.72
2023-05-09T12:19:37.791Z,4.55
2023-05-09T12:22:08.496Z,4.15
2023-05-09T12:24:37.535Z,4.10
2023-05-09T12:27:05.240Z,3.70
2023-05-09T12:29:32.513Z,3.80
2023-05-09T12:31:59.893Z,3.72
2023-05-09T12:34:27.075Z,3.95
2023-05-09T12:36:54.259Z,3.97
2023-05-09T12:39:22.903Z,3.50
2023-05-09T12:42:01.043Z,3.42
2023-05-09T12:44:29.655Z,3.83
2023-05-09T12:46:58.246Z,3.55
2023-05-09T12:49:25.623Z,3.75
2023-05-09T12:51:53.565Z,3.70
2023-05-09T12:54:23.172Z,4.10
2023-05-09T12:56:52.379Z,4.10
2023-05-09T12:59:24.050Z,5.10
2023-05-09T13:01:58.076Z,4.63
2023-05-09T13:04:26.604Z,5.28
2023-05-09T13:06:55.692Z,4.95
2023-05-09T13:09:23.540Z,5.00
2023-05-09T13:11:51.099Z,4.78
2023-05-09T13:14:22.008Z,5.40
2023-05-09T13:16:49.118Z,4.53
2023-05-09T13:19:16.400Z,4.30
2023-05-09T13:21:43.565Z,4.28
2023-05-09T13:24:10.856Z,4.03
2023-05-09T13:26:37.976Z,4.05
2023-05-09T13:29:05.198Z,3.83
2023-05-09T13:31:32.315Z,3.63
2023-05-09T13:33:59.491Z,3.95
2023-05-09T13:36:26.752Z,3.75
2023-05-09T13:38:53.922Z,3.58
2023-05-09T13:41:23.500Z,3.92
2023-05-09T13:43:50.788Z,3.60
2023-05-09T13:46:18.019Z,3.47
2023-05-09T13:48:45.203Z,3.50
2023-05-09T13:51:12.334Z,3.63
2023-05-09T13:53:39.515Z,3.53
2023-05-09T13:56:07.696Z,3.55
2023-05-09T13:58:34.828Z,3.30
2023-05-09T14:01:02.089Z,3.20
2023-05-09T14:03:29.355Z,3.63
2023-05-09T14:05:56.545Z,3.58
2023-05-09T14:08:23.798Z,3.50
2023-05-09T14:10:51.048Z,3.53
2023-05-09T14:13:18.238Z,3.22
2023-05-09T14:15:45.443Z,3.55
2023-05-09T14:18:17.052Z,3.35
2023-05-09T14:20:45.749Z,3.38
2023-05-09T14:23:13.405Z,3.50
2023-05-09T14:25:40.514Z,3.35
2023-05-09T14:28:09.286Z,3.60
2023-05-09T14:30:36.925Z,3.00
2023-05-09T14:33:04.048Z,3.00
2023-05-09T14:35:33.815Z,3.33
2023-05-09T14:38:01.455Z,3.22
2023-05-09T14:40:31.901Z,2.65
2023-05-09T14:42:59.875Z,3.17
2023-05-09T14:45:27.007Z,3.35
2023-05-09T14:47:54.130Z,3.00
2023-05-09T14:50:21.765Z,3.22
2023-05-09T14:52:50.293Z,3.35
2023-05-09T14:55:18.564Z,3.33
2023-05-09T14:57:46.027Z,3.05
2023-05-09T15:00:21.146Z,3.50
2023-05-09T15:02:49.993Z,3.47
2023-05-09T15:05:17.697Z,3.58
2023-05-09T15:07:44.924Z,3.15
2023-05-09T15:10:12.241Z,3.60
2023-05-09T15:12:39.473Z,3.20
2023-05-09T15:15:24.547Z,3.10
2023-05-09T15:17:52.268Z,2.92
2023-05-09T15:20:19.603Z,2.72
2023-05-09T15:22:48.047Z,2.80
2023-05-09T15:25:15.272Z,2.80
2023-05-09T15:27:42.568Z,3.25
2023-05-09T15:30:10.156Z,2.88
2023-05-09T15:32:42.860Z,3.33
2023-05-09T15:35:10.245Z,3.78
2023-05-09T15:37:37.896Z,3.25
2023-05-09T15:40:05.367Z,3.15
2023-05-09T15:42:32.494Z,3.33
2023-05-09T15:44:59.602Z,3.60
2023-05-09T15:47:26.734Z,3.10
2023-05-09T15:49:53.890Z,3.75
2023-05-09T15:52:21.431Z,3.50
2023-05-09T15:54:48.623Z,3.58
2023-05-09T15:57:17.506Z,3.47
2023-05-09T15:59:44.604Z,3.28
2023-05-09T16:02:12.368Z,3.30
2023-05-09T16:04:39.600Z,2.72
2023-05-09T16:07:06.818Z,3.15
2023-05-09T16:09:34.086Z,2.63
2023-05-09T16:12:01.663Z,2.80
2023-05-09T16:14:28.910Z,2.00
2023-05-09T16:16:56.085Z,2.00
2023-05-09T16:19:23.274Z,1.60
2023-05-09T16:21:50.427Z,1.80
2023-05-09T16:24:18.062Z,1.85
2023-05-09T16:26:45.196Z,1.60
2023-05-09T16:29:13.543Z,1.70
2023-05-09T16:31:40.933Z,2.00
2023-05-09T16:34:08.106Z,1.95
2023-05-09T16:36:37.382Z,2.10
2023-05-09T16:39:04.479Z,1.98
2023-05-09T16:41:31.685Z,2.40
2023-05-09T16:43:58.955Z,2.30
2023-05-09T16:46:26.247Z,2.40
2023-05-09T16:48:53.506Z,2.42
2023-05-09T16:51:20.623Z,2.42
2023-05-09T16:53:47.978Z,2.40
2023-05-09T16:56:15.063Z,2.60
2023-05-09T16:58:44.265Z,2.45
2023-05-09T17:01:11.602Z,2.50
2023-05-09T17:03:38.870Z,2.80
2023-05-09T17:06:06.146Z,2.70
2023-05-09T17:08:33.300Z,2.65
2023-05-09T17:11:00.562Z,3.38
2023-05-09T17:13:28.254Z,3.00
2023-05-09T17:15:55.884Z,3.00
2023-05-09T17:18:36.088Z,3.60
2023-05-09T17:21:05.257Z,3.38
2023-05-09T17:23:32.528Z,3.50
2023-05-09T17:25:59.737Z,3.60
2023-05-09T17:28:26.892Z,3.65
2023-05-09T17:30:54.034Z,3.88
2023-05-09T17:33:21.203Z,3.75
2023-05-09T17:35:49.504Z,3.95
2023-05-09T17:38:16.675Z,4.40
2023-05-09T17:40:44.217Z,4.10
2023-05-09T17:43:12.197Z,4.70
2023-05-09T17:45:39.473Z,4.35
2023-05-09T17:48:06.620Z,4.40
2023-05-09T17:50:33.884Z,4.35
2023-05-09T17:53:01.064Z,4.60
2023-05-09T17:55:28.151Z,4.88
2023-05-09T17:57:55.228Z,4.60
2023-05-09T18:00:22.467Z,4.40
2023-05-09T18:02:51.044Z,4.55
2023-05-09T18:05:18.462Z,4.40
2023-05-09T18:07:45.620Z,5.05
2023-05-09T18:10:12.970Z,4.22
2023-05-09T18:12:40.255Z,4.50
2023-05-09T18:15:07.805Z,4.60
2023-05-09T18:17:34.920Z,4.40
2023-05-09T18:20:02.215Z,5.00
2023-05-09T18:22:29.347Z,4.63
2023-05-09T18:24:56.655Z,4.65
2023-05-09T18:27:23.799Z,4.68
2023-05-09T18:29:50.920Z,4.47
2023-05-09T18:32:18.378Z,4.53
2023-05-09T18:34:48.230Z,4.13
2023-05-09T18:37:16.862Z,4.38
2023-05-09T18:39:44.077Z,4.43
2023-05-09T18:42:12.948Z,4.25
2023-05-09T18:44:41.864Z,4.10
2023-05-09T18:47:09.204Z,4.00
2023-05-09T18:49:36.646Z,4.03
2023-05-09T18:52:03.805Z,4.25
2023-05-09T18:54:31.105Z,4.35
2023-05-09T18:56:58.398Z,3.75
2023-05-09T18:59:25.562Z,4.18
2023-05-09T19:01:53.131Z,4.20
2023-05-09T19:04:21.535Z,4.18
2023-05-09T19:06:48.804Z,4.25
2023-05-09T19:09:16.594Z,4.45
2023-05-09T19:11:43.812Z,4.15
2023-05-09T19:14:10.917Z,4.40
2023-05-09T19:16:38.043Z,4.35
2023-05-09T19:19:05.145Z,4.13
2023-05-09T19:21:34.141Z,4.88
2023-05-09T19:24:01.262Z,4.72
2023-05-09T19:26:28.355Z,4.53
2023-05-09T19:28:55.519Z,4.70
2023-05-09T19:31:25.172Z,4.50
2023-05-09T19:33:52.482Z,4.13
2023-05-09T19:36:19.619Z,4.10
2023-05-09T19:38:46.688Z,4.00
2023-05-09T19:41:14.025Z,4.32
2023-05-09T19:43:41.193Z,3.78
2023-05-09T19:46:08.460Z,4.10
2023-05-09T19:48:35.884Z,3.92
2023-05-09T19:51:03.267Z,3.60
2023-05-09T19:53:30.502Z,3.88
2023-05-09T19:55:57.857Z,3.58
2023-05-09T19:58:24.988Z,4.18
2023-05-09T20:00:52.162Z,4.13
2023-05-09T20:03:19.406Z,4.25
2023-05-09T20:05:46.640Z,3.53
2023-05-09T20:08:13.804Z,4.30
2023-05-09T20:10:40.955Z,3.70
2023-05-09T20:13:08.379Z,3.80
2023-05-09T20:15:35.543Z,3.97
2023-05-09T20:18:03.534Z,4.20
2023-05-09T20:20:34.214Z,3.85
2023-05-09T20:23:02.061Z,3.65
2023-05-09T20:25:29.261Z,3.85
2023-05-09T20:27:56.411Z,3.72
2023-05-09T20:30:23.567Z,3.95
2023-05-09T20:32:51.008Z,3.80
2023-05-09T20:35:18.433Z,4.10
2023-05-09T20:37:45.575Z,4.20
2023-05-09T20:40:13.818Z,4.20
2023-05-09T20:42:41.112Z,3.83
2023-05-09T20:45:08.487Z,3.92
2023-05-09T20:47:35.685Z,3.85
2023-05-09T20:50:02.862Z,3.88
2023-05-09T20:52:30.037Z,3.80
2023-05-09T20:54:58.988Z,3.75
2023-05-09T20:57:26.159Z,3.58
2023-05-09T20:59:53.288Z,3.72
2023-05-09T21:02:20.577Z,4.00
2023-05-09T21:04:47.737Z,4.22
2023-05-09T21:07:18.883Z,4.40
2023-05-09T21:09:47.554Z,4.60
2023-05-09T21:12:14.694Z,4.15
2023-05-09T21:14:41.837Z,4.93
2023-05-09T21:17:09.562Z,4.88
2023-05-09T21:19:36.725Z,4.22
2023-05-09T21:22:03.867Z,5.15
2023-05-09T21:24:31.052Z,5.15
2023-05-09T21:26:58.205Z,5.28
2023-05-09T21:29:25.391Z,5.50
2023-05-09T21:31:52.599Z,5.13
2023-05-09T21:34:20.107Z,5.13
2023-05-09T21:36:47.232Z,5.07
2023-05-09T21:39:14.363Z,5.53
2023-05-09T21:41:42.737Z,5.32
2023-05-09T21:44:11.161Z,5.03
2023-05-09T21:46:38.511Z,5.85
2023-05-09T21:49:05.866Z,6.00
2023-05-09T21:51:33.357Z,5.65
2023-05-09T21:54:01.149Z,6.07
2023-05-09T21:56:28.266Z,5.65
2023-05-09T21:58:55.532Z,6.00
2023-05-09T22:01:22.770Z,6.00
2023-05-09T22:03:50.030Z,5.70
2023-05-09T22:06:17.185Z,5.70
2023-05-09T22:08:44.227Z,6.03
2023-05-09T22:11:13.326Z,6.43
2023-05-09T22:13:42.383Z,6.43
2023-05-09T22:16:09.692Z,5.95
2023-05-09T22:18:37.124Z,5.97
2023-05-09T22:21:04.376Z,6.90
2023-05-09T22:23:31.499Z,7.10
2023-05-09T22:25:58.643Z,7.65
2023-05-09T22:28:25.723Z,8.30
2023-05-09T22:30:52.781Z,8.35
2023-05-09T22:33:19.832Z,8.65
2023-05-09T22:35:46.872Z,8.65
2023-05-09T22:38:13.982Z,8.55
2023-05-09T22:40:41.092Z,9.38
2023-05-09T22:43:10.403Z,9.40
2023-05-09T22:45:37.685Z,9.90
2023-05-09T22:48:04.976Z,9.63
2023-05-09T22:50:32.159Z,9.70
2023-05-09T22:52:59.393Z,9.27
2023-05-09T22:55:26.510Z,9.93
2023-05-09T22:57:53.648Z,10.75
2023-05-09T23:00:20.910Z,10.38
2023-05-09T23:02:48.081Z,9.88
2023-05-09T23:05:15.262Z,11.77
2023-05-09T23:07:42.478Z,9.95
2023-05-09T23:10:09.855Z,10.55
2023-05-09T23:12:38.003Z,11.18
2023-05-09T23:15:06.305Z,10.55
2023-05-09T23:17:33.424Z,10.73
2023-05-09T23:20:01.546Z,10.95
2023-05-09T23:22:28.650Z,9.93
2023-05-09T23:24:55.839Z,10.70
2023-05-09T23:27:22.910Z,10.55
2023-05-09T23:29:49.965Z,11.05
2023-05-09T23:32:17.106Z,10.40
2023-05-09T23:34:44.230Z,10.98
2023-05-09T23:37:11.907Z,10.35
2023-05-09T23:39:39.025Z,10.43
2023-05-09T23:42:06.220Z,9.65
2023-05-09T23:44:33.336Z,10.68
2023-05-09T23:47:01.969Z,10.30
2023-05-09T23:49:29.208Z,10.55
2023-05-09T23:51:56.359Z,10.40
2023-05-09T23:54:24.351Z,11.18
2023-05-09T23:56:51.588Z,10.27
2023-05-09T23:59:18.678Z,10.15
